Tiempo atmosférico en la estación meteorológica de Albacete, Albacete (674 m.)

Fecha
DESCASC
Temp. máxima en grados centígrados (hora)
DESCASC
Temp. mínima en grados centígrados (hora)
DESCASC
Temp. media en grados centígrados
DESCASC
Racha de viento máxima en m/sg (hora)
DESCASC
Velocidad máxima media en intervalos de 10 minutos(hora)
DESCASC
Precipitaciones diarias en mm
DESCASC
Precipitaciones de 00:00 a 06:00 en mm
DESCASC
Precipitaciones de 06:00 a 12:00 en mm
DESCASC
Precipitaciones de 12:00 a 18:00 en mm
DESCASC
Precipitaciones de 18:00 a 24:00 en mm
DESCASC
21-09-2017 30.5 (16:00) 12.1 (08:10) 21.3 8.06 (23:10) 2.5 (15:20) 0 0 0 0 0
20-09-2017 29.6 (16:40) 9.6 (08:00) 19.6 6.67 (23:10) 1.94 (23:10) 0 0 0 0 0
19-09-2017 26.8 (16:20) 11.4 (08:50) 19.1 8.33 (17:20) 3.33 (18:30) 0 0 0 0 0
18-09-2017 26.2 (15:30) 13.5 (07:50) 19.9 10.83 (16:50) 3.89 (12:40) 0 0 0 0 0
17-09-2017 27.2 (17:20) 9.1 (00:00) 18.2 10 (16:30) 3.33 (15:40) 0 0 0 0 0
16-09-2017 24.2 (16:30) 12.5 (00:00) 18.4 8.89 (00:50) 2.5 (18:10) 0 0 0 0 0
15-09-2017 28.5 (15:40) 14.2 (00:00) 21.3 10.28 (21:00) 4.44 (15:50) 0.1 0 0.1 0 0
14-09-2017 32.1 (16:00) 15 (00:00) 23.5 9.44 (15:00) 3.33 (16:00) 0 0 0 0 0
13-09-2017 31.4 (16:50) 12.9 (00:00) 22.1 7.78 (23:59) 3.33 (18:40) 0 0 0 0 0
12-09-2017 29.5 (17:00) 15.7 (00:00) 22.6 8.06 (16:40) 3.33 (15:10) 0 0 0 0 0
11-09-2017 31.2 (17:30) 13.4 (00:00) 22.3 10 (17:10) 3.61 (17:10) 0 0 0 0 0
10-09-2017 24.5 (17:20) 11.4 (00:00) 17.9 10.83 (17:30) 3.33 (13:10) 0 0 0 0 0
09-09-2017 26.6 (15:30) 19 (00:00) 22.8 11.67 (17:10) 5 (11:10) 0 0 0 0 0
08-09-2017 32.7 (17:20) 16.1 (00:00) 24.4 6.94 (21:30) 2.22 (00:40) 0 0 0 0 0
07-09-2017 31 (16:20) 17.9 (00:00) 24.4 6.94 (22:20) 2.5 (02:40) 1.8 1.7 0 0.1 0
06-09-2017 33.5 (16:40) 17.3 (00:00) 25.4 9.72 (20:10) 3.33 (21:10) 0 0 0 0 0
05-09-2017 32.3 (16:00) 17.3 (00:00) 24.8 6.94 (13:30) 2.78 (11:10) 0 0 0 0 0
04-09-2017 31.5 (17:40) 17.2 (00:00) 24.4 7.5 (21:50) 3.61 (21:40) 0 0 0 0 0
03-09-2017 31.7 (17:40) 13.8 (00:00) 22.8 9.72 (15:30) 3.06 (15:30) 0 0 0 0 0
02-09-2017 29.6 (17:50) 16.7 (00:00) 23.2 5.83 (10:20) 2.22 (23:00) 0.1 0 0 0.1 0
01-09-2017 29.2 (15:10) 17.8 (00:00) 23.5 6.67 (20:30) 3.33 (20:00) 0.8 0 0 0 0.8
31-08-2017 29.1 (15:10) 17.8 (00:00) 23.4 5.56 (23:20) 2.22 (22:10) 0.3 0 0.3 0 0
30-08-2017 25.9 (18:00) 16.6 (00:00) 21.3 7.22 (00:20) 2.5 (00:10) 0 0 0 0 0
29-08-2017 24.7 (14:00) 16 (00:00) 20.4 11.39 (15:10) 4.17 (15:30) 0 0 0 0 0
28-08-2017 27.2 (12:50) 18.4 (00:00) 22.8 11.39 (19:10) 3.61 (19:10) 0 0 0 0 0
27-08-2017 30.9 (14:20) 20.2 (00:00) 25.6 12.5 (16:00) 4.44 (16:00) 0.7 0.1 0.1 0 0.5
26-08-2017 34.5 (14:10) 20.8 (00:00) 27.6 8.61 (18:20) 3.61 (08:20) 1 0 0 0 1
25-08-2017 37 (15:30) 18.9 (00:00) 27.9 9.72 (18:00) 2.78 (23:00) 3.4 0 0 1.7 1.7

Gráficas

Temp. máximas Temp. mínimas Temp. medias Precipitaciones Rachas de viento máximas Velocidades máximas media en intervalos de 10 minutos

Datos horarios

Fecha y hora oficial Temperatura (ºC) Velocidad del viento (km/h) Dirección del viento Racha (km/h) Dirección de racha Precipitación (mm) Presión (hPa) Tendencia (hPa) Humedad (%)
2017-09-23 23:00:00 19.7 7 Sur 20 Sur 0 -- -- 64
2017-09-23 22:00:00 21 6 Sur 18 Sur 0 -- -- 53
2017-09-23 21:00:00 22.6 4 Sur 18 Sudoeste 0 -- -- 42
2017-09-23 20:00:00 24 3 Sur 14 Sur 0 -- -- 37
2017-09-23 19:00:00 25.6 3 Sudeste 15 Sudeste 0 -- -- 35
2017-09-23 18:00:00 27.3 4 Sudeste 16 Sudeste 0 -- -- 34
2017-09-23 17:00:00 27.1 3 Sudeste 20 Sudeste 0 -- -- 37
2017-09-23 16:00:00 26.5 6 Sudeste 20 Sudeste 0 -- -- 36
2017-09-23 15:00:00 25.9 4 Sudeste 21 Sudeste 0 -- -- 40
2017-09-23 14:00:00 24.5 8 Sudeste 19 Sur 0 -- -- 45
2017-09-23 13:00:00 23.8 5 Sudeste 22 Este 0 -- -- 50
2017-09-23 12:00:00 21 8 Sudeste 20 Sudeste 0 -- -- 63
2017-09-23 11:00:00 18.8 6 Sudeste 15 Sudeste 0 -- -- 74
2017-09-23 10:00:00 16 8 Este 14 Este 0 -- -- 91
2017-09-23 09:00:00 13.7 4 Este 10 Este 0 -- -- 97
2017-09-23 08:00:00 13.4 0 Calma 9 Este 0 -- -- 95
2017-09-23 07:00:00 14 2 Este 9 Este 0 -- -- 95
2017-09-23 06:00:00 14.4 3 Sudeste 9 Este 0 -- -- 91
2017-09-23 05:00:00 15.4 5 Sudeste 18 Sudeste 0 -- -- 90
2017-09-23 04:00:00 15.5 7 Sudeste 17 Sudeste 0 -- -- 91
2017-09-23 03:00:00 15.5 5 Sudeste 17 Sudeste 0 -- -- 88
2017-09-23 02:00:00 16.1 4 Este 8 Este 0 -- -- 85
2017-09-23 01:00:00 16.6 5 Este 13 Nordeste 0 -- -- 79
2017-09-23 00:00:00 17.5 4 Este 17 Este 0 -- -- 76
2017-09-22 23:00:00 18.6 5 Este 18 Este 0 -- -- 68
2017-09-22 22:00:00 19.3 6 Este 23 Este 0 -- -- 67
2017-09-22 21:00:00 20.2 6 Este 27 Este 0 -- -- 67
2017-09-22 20:00:00 22.2 9 Este 31 Sudeste 0 -- -- 55
2017-09-22 19:00:00 24.3 9 Sudeste 24 Sudeste 0 -- -- 43
2017-09-22 18:00:00 25.6 5 Sur 24 Sudeste 0 -- -- 34
2017-09-22 17:00:00 27.6 9 Sudeste 22 Sudeste 0 -- -- 30
2017-09-22 16:00:00 27.7 8 Este 27 Sudeste 0 -- -- 34
2017-09-22 15:00:00 26.1 5 Sudeste 23 Sudeste 0 -- -- 34
2017-09-22 14:00:00 24.6 6 Sudeste 21 Sudeste 0 -- -- 39
2017-09-22 13:00:00 24.2 7 Sudeste 22 Sudeste 0 -- -- 44
2017-09-22 12:00:00 22.1 6 Sudeste 22 Sudeste 0 -- -- 56
2017-09-22 11:00:00 18.7 5 Sudeste 21 Sudeste 0 -- -- 70
2017-09-22 10:00:00 16.4 7 Sudeste 23 Sudeste 0 -- -- 89
2017-09-22 09:00:00 15.3 4 Sudeste 12 Sudeste 0 -- -- 94
2017-09-22 08:00:00 14.8 0 Calma 15 Este 0 -- -- 95
2017-09-22 07:00:00 15.2 0 Calma 6 Nordeste 0 -- -- 93
2017-09-22 06:00:00 15.9 2 Este 12 Este 0 -- -- 92
2017-09-22 05:00:00 16.5 4 Este 13 Sudeste 0 -- -- 87
2017-09-22 04:00:00 17.2 4 Sudeste 16 Sudeste 0 -- -- 82
2017-09-22 03:00:00 17.8 4 Este 14 Sudeste 0 -- -- 74
2017-09-22 02:00:00 18.5 5 Sudeste 13 Sudeste 0 -- -- 70
2017-09-22 01:00:00 19 4 Este 19 Sudeste 0 -- -- 64
2017-09-22 00:00:00 19.9 8 Sudeste 29 Sudoeste 0 -- -- 57
2017-09-21 23:00:00 20.9 6 Sudeste 21 Sudeste 0 -- -- 54
2017-09-21 22:00:00 22 6 Sudeste 18 Sudeste 0 -- -- 41
2017-09-21 21:00:00 23.3 4 Sur 16 Sur 0 -- -- 36
2017-09-21 20:00:00 25.1 4 Sur 19 Sudoeste 0 -- -- 31
2017-09-21 19:00:00 26.8 6 Sur 19 Sudoeste 0 -- -- 27
2017-09-21 18:00:00 29.3 5 Sudeste 17 Sudeste 0 -- -- 23
2017-09-21 17:00:00 29.5 4 Sudeste 22 Sur 0 -- -- 23
2017-09-21 16:00:00 29.9 3 Sur 21 Sudoeste 0 -- -- 23
2017-09-21 15:00:00 29.8 5 Este 17 Sudeste 0 -- -- 29
2017-09-21 14:00:00 28.4 2 Este 14 Este 0 -- -- 31
2017-09-21 13:00:00 26.4 3 Sudeste 9 Sudeste 0 -- -- 34
2017-09-21 12:00:00 23 2 Nordeste 9 Sudoeste 0 -- -- 46
2017-09-21 11:00:00 17.7 3 Este 8 Este 0 -- -- 83
2017-09-21 10:00:00 14 3 Este 5 Este 0 -- -- 99
2017-09-21 09:00:00 12.3 2 Nordeste 8 Este 0 -- -- 99
2017-09-21 08:00:00 12.3 4 Este 9 Este 0 -- -- 99
2017-09-21 07:00:00 13 4 Este 7 Este 0 -- -- 97
2017-09-21 06:00:00 14.7 3 Este 8 Este 0 -- -- 91
2017-09-21 05:00:00 15.7 3 Este 9 Este 0 -- -- 84
2017-09-21 04:00:00 16.2 3 Este 12 Sudeste 0 -- -- 81
2017-09-21 03:00:00 17.3 4 Sudeste 20 Sudeste 0 -- -- 77
2017-09-21 02:00:00 17.8 6 Sudeste 20 Sur 0 -- -- 77
2017-09-21 01:00:00 18.5 6 Sudeste 21 Sudeste 0 -- -- 75
2017-09-21 00:00:00 19.2 7 Sur 24 Sur 0 -- -- 74
2017-09-20 23:00:00 20 7 Sur 22 Sudoeste 0 -- -- 69
2017-09-20 22:00:00 21.2 5 Sur 19 Sudeste 0 -- -- 57
2017-09-20 21:00:00 22.8 5 Sur 18 Sudoeste 0 -- -- 46
2017-09-20 20:00:00 24.9 6 Sur 17 Sudoeste 0 -- -- 36
2017-09-20 19:00:00 26.9 6 Sur 16 Sudoeste 0 -- -- 27
2017-09-20 18:00:00 28.2 4 Sudoeste 12 Oeste 0 -- -- 23
2017-09-20 17:00:00 28.5 4 Sudoeste 13 Oeste 0 -- -- 23
2017-09-20 16:00:00 28.9 3 Oeste 13 Sur 0 -- -- 25
2017-09-20 15:00:00 28 5 Este 12 Este 0 -- -- 29
2017-09-20 14:00:00 25.9 3 Norte 12 Sudeste 0 -- -- 33
2017-09-20 13:00:00 24.8 4 Este 12 Este 0 -- -- 47
2017-09-20 12:00:00 19.7 4 Este 11 Este 0 -- -- 67
2017-09-20 11:00:00 14.1 3 Este 8 Este 0 -- -- 90
2017-09-20 10:00:00 11.2 3 Este 6 Nordeste 0 -- -- 99
2017-09-20 09:00:00 10.1 2 Este 5 Este 0 -- -- 99
2017-09-20 08:00:00 9.6 0 Calma 7 Este 0 -- -- 96
2017-09-20 07:00:00 10.5 0 Calma 5 Este 0 -- -- 86
2017-09-20 06:00:00 11.4 0 Calma 2 Norte 0 -- -- 60
2017-09-20 05:00:00 12.1 0 Calma 3 Este 0 -- -- 58
2017-09-20 04:00:00 12.6 0 Calma 4 Este 0 -- -- 54
2017-09-20 03:00:00 13.8 0 Calma 4 Norte 0 -- -- 51
2017-09-20 02:00:00 15 0 Calma 3 Sudoeste 0 -- -- 47
2017-09-20 01:00:00 16.1 0 Calma 8 Norte 0 -- -- 42
2017-09-20 00:00:00 17.9 0 Calma 13 Sudoeste 0 -- -- 37
2017-09-19 23:00:00 19.4 5 Oeste 17 Oeste 0 -- -- 34
2017-09-19 22:00:00 20.9 7 Oeste 13 Oeste 0 -- -- 33
2017-09-19 21:00:00 22.5 5 Oeste 14 Oeste 0 -- -- 30
2017-09-19 20:00:00 23.8 7 Oeste 24 Noroeste 0 -- -- 29
2017-09-19 19:00:00 24.9 9 Oeste 29 Oeste 0 -- -- 28
2017-09-19 18:00:00 26.3 9 Oeste 30 Oeste 0 -- -- 28
2017-09-19 17:00:00 26.3 10 Oeste 27 Oeste 0 -- -- 28
2017-09-19 16:00:00 26.1 8 Oeste 25 Sudoeste 0 -- -- 29
2017-09-19 15:00:00 25.4 8 Oeste 21 Noroeste 0 -- -- 31
2017-09-19 14:00:00 24 5 Oeste 19 Oeste 0 -- -- 35
2017-09-19 13:00:00 22.5 4 Noroeste 13 Oeste 0 -- -- 42
2017-09-19 12:00:00 19.3 2 Noroeste 12 Sudoeste 0 -- -- 57
2017-09-19 11:00:00 15.3 2 Oeste 8 Oeste 0 -- -- 78
2017-09-19 10:00:00 13 2 Sur 6 Sudoeste 0 -- -- 88
2017-09-19 09:00:00 11.6 3 Oeste 8 Oeste 0 -- -- 94
2017-09-19 08:00:00 11.7 0 Calma 4 Oeste 0 -- -- 76
2017-09-19 07:00:00 12.7 0 Calma 3 Oeste 0 -- -- 70
2017-09-19 06:00:00 11.7 0 Calma 4 Este 0 -- -- 82
2017-09-19 05:00:00 12 0 Calma 5 Nordeste 0 -- -- 71
2017-09-19 04:00:00 12.9 0 Calma 8 Oeste 0 -- -- 58
2017-09-19 03:00:00 14.1 2 Oeste 5 Oeste 0 -- -- 54
2017-09-19 02:00:00 15.3 0 Calma 6 Oeste 0 -- -- 51
2017-09-19 01:00:00 16.4 0 Calma 13 Oeste 0 -- -- 48
2017-09-19 00:00:00 17.4 5 Oeste 10 Oeste 0 -- -- 47
2017-09-18 23:00:00 18.3 2 Oeste 8 Noroeste 0 -- -- 45
2017-09-18 22:00:00 19.3 2 Noroeste 11 Noroeste 0 -- -- 42
2017-09-18 21:00:00 21.5 4 Noroeste 22 Noroeste 0 -- -- 37
2017-09-18 20:00:00 22.9 6 Noroeste 32 Oeste 0 -- -- 34
2017-09-18 19:00:00 24.2 5 Noroeste 30 Oeste 0 -- -- 31
2017-09-18 18:00:00 25.2 10 Oeste 30 Noroeste 0 -- -- 30
2017-09-18 17:00:00 25.4 11 Oeste 39 Sudoeste 0 -- -- 30
2017-09-18 16:00:00 25.7 8 Noroeste 34 Oeste 0 -- -- 29
2017-09-18 15:00:00 24.9 11 Oeste 33 Oeste 0 -- -- 29
2017-09-18 14:00:00 24.4 12 Oeste 31 Oeste 0 -- -- 30
2017-09-18 13:00:00 23.4 12 Oeste 33 Oeste 0 -- -- 31
2017-09-18 12:00:00 21.9 10 Oeste 29 Oeste 0 -- -- 35
2017-09-18 11:00:00 19.2 11 Oeste 24 Oeste 0 -- -- 41
2017-09-18 10:00:00 14.5 2 Noroeste 8 Oeste 0 -- -- 55
2017-09-18 09:00:00 14 3 Oeste 12 Sudoeste 0 -- -- 57
2017-09-18 08:00:00 13.6 3 Sudoeste 12 Sudoeste 0 -- -- 54
2017-09-18 07:00:00 14.2 4 Sudoeste 10 Sudoeste 0 -- -- 50
2017-09-18 06:00:00 14.9 4 Sudoeste 13 Sudoeste 0 -- -- 46
2017-09-18 05:00:00 15.1 6 Oeste 15 Oeste 0 -- -- 44
2017-09-18 04:00:00 15.7 5 Oeste 17 Sudoeste 0 -- -- 43
2017-09-18 03:00:00 16.4 6 Oeste 14 Sudoeste 0 -- -- 41
2017-09-18 02:00:00 17.3 5 Oeste 13 Oeste 0 -- -- 38
2017-09-18 01:00:00 18.1 5 Oeste 15 Oeste 0 -- -- 39
2017-09-18 00:00:00 18.9 4 Sudoeste 14 Sudoeste 0 -- -- 68
2017-09-17 23:00:00 20.2 5 Sur 14 Sur 0 -- -- 65
2017-09-17 22:00:00 21 0 Calma 9 Sudoeste 0 -- -- 29
2017-09-17 21:00:00 22.1 0 Calma 10 Oeste 0 -- -- 24
2017-09-17 20:00:00 23.9 4 Oeste 19 Oeste 0 -- -- 22
2017-09-17 19:00:00 25.2 6 Oeste 26 Oeste 0 -- -- 22
2017-09-17 18:00:00 26.8 10 Oeste 29 Oeste 0 -- -- 22
2017-09-17 17:00:00 26.6 9 Oeste 36 Noroeste 0 -- -- 23
2017-09-17 16:00:00 26.2 8 Oeste 32 Oeste 0 -- -- 23
2017-09-17 15:00:00 25.5 8 Oeste 27 Oeste 0 -- -- 25
2017-09-17 14:00:00 24.8 6 Noroeste 31 Oeste 0 -- -- 27
2017-09-17 13:00:00 23.3 8 Oeste 18 Oeste 0 -- -- 33
2017-09-17 12:00:00 20.4 5 Sudoeste 13 Sudoeste 0 -- -- 43
2017-09-17 11:00:00 16.3 0 Calma 9 Sudeste 0 -- -- 74
2017-09-17 10:00:00 13.5 2 Sur 8 Sudoeste 0 -- -- 95
2017-09-17 09:00:00 9.9 0 Calma 4 Nordeste 0 -- -- 97
2017-09-17 08:00:00 9.1 2 Este 5 Nordeste 0 -- -- 94
2017-09-17 07:00:00 9.8 0 Calma 5 Este 0 -- -- 89
2017-09-17 06:00:00 10.3 2 Nordeste 10 Este 0 -- -- 89
2017-09-17 05:00:00 11.7 4 Este 10 Sudeste 0 -- -- 86
2017-09-17 04:00:00 14.2 2 Sudeste 12 Sudoeste 0 -- -- 93
2017-09-17 03:00:00 14.4 3 Sur 13 Sudeste 0 -- -- 93
2017-09-17 02:00:00 14.7 4 Sudeste 15 Sur 0 -- -- 86
2017-09-17 01:00:00 15.5 2 Sur 9 Sudoeste 0 -- -- 57
2017-09-17 00:00:00 16.2 2 Sur 9 Sur 0 -- -- 37
2017-09-16 23:00:00 16.1 0 Calma 6 Noroeste 0 -- -- 36
2017-09-16 22:00:00 17.5 0 Calma 9 Noroeste 0 -- -- 34
2017-09-16 21:00:00 19.4 2 Noroeste 18 Noroeste 0 -- -- 31
2017-09-16 20:00:00 20.7 7 Noroeste 22 Oeste 0 -- -- 30
2017-09-16 19:00:00 22.1 8 Oeste 26 Oeste 0 -- -- 31
2017-09-16 18:00:00 22.9 8 Oeste 28 Oeste 0 -- -- 32
2017-09-16 17:00:00 23.4 4 Oeste 23 Noroeste 0 -- -- 35
2017-09-16 16:00:00 23.7 5 Noroeste 18 Norte 0 -- -- 37
2017-09-16 15:00:00 22.5 5 Noroeste 20 Oeste 0 -- -- 41
2017-09-16 14:00:00 21.5 4 Norte 18 Noroeste 0 -- -- 46
2017-09-16 13:00:00 19.3 3 Noroeste 11 Oeste 0 -- -- 55
2017-09-16 12:00:00 17.2 3 Noroeste 10 Este 0 -- -- 66
2017-09-16 11:00:00 15.1 4 Nordeste 11 Este 0 -- -- 74
2017-09-16 10:00:00 13.5 2 Nordeste 10 Norte 0 -- -- 75
2017-09-16 09:00:00 13.2 3 Este 10 Este 0 -- -- 87
2017-09-16 08:00:00 12.6 4 Este 11 Sudeste 0 -- -- 89
2017-09-16 07:00:00 12.6 3 Nordeste 12 Este 0 -- -- 89
2017-09-16 06:00:00 12.6 4 Este 10 Este 0 -- -- 88
2017-09-16 05:00:00 12.7 4 Este 12 Este 0 -- -- 83
2017-09-16 04:00:00 13 2 Nordeste 7 Noroeste 0 -- -- 81
2017-09-16 03:00:00 13.5 3 Este 15 Este 0 -- -- 86
2017-09-16 02:00:00 13.9 5 Este 20 Este 0 -- -- 86
2017-09-16 01:00:00 14.2 5 Nordeste 32 Este 0 -- -- 87
2017-09-16 00:00:00 14.2 7 Este 24 Este 0 -- -- 89
2017-09-15 23:00:00 14.7 7 Nordeste 28 Nordeste 0 -- -- 88
2017-09-15 22:00:00 15.4 10 Este 33 Este 0 -- -- 86
2017-09-15 21:00:00 16.4 9 Nordeste 37 Este 0 -- -- 81
2017-09-15 20:00:00 19.6 5 Nordeste 23 Este 0 -- -- 69
2017-09-15 19:00:00 24.7 4 Norte 21 Oeste 0 -- -- 43
2017-09-15 18:00:00 26.7 7 Noroeste 32 Oeste 0 -- -- 27
2017-09-15 17:00:00 27.5 7 Noroeste 28 Oeste 0 -- -- 28
2017-09-15 16:00:00 27.8 9 Oeste 33 Oeste 0 -- -- 29
2017-09-15 15:00:00 27.5 8 Oeste 35 Sudoeste 0 -- -- 35
2017-09-15 14:00:00 27.1 12 Sudoeste 33 Sudoeste 0 -- -- 34
2017-09-15 13:00:00 25.8 4 Sur 19 Oeste 0 -- -- 45
2017-09-15 12:00:00 24.3 5 Sudeste 22 Sudeste 0 -- -- 53
2017-09-15 11:00:00 20.7 6 Sudeste 22 Sudeste 0.1 -- -- 73
2017-09-15 10:00:00 18.9 7 Sudeste 16 Sur 0 -- -- 81
2017-09-15 09:00:00 17.6 4 Este 15 Sudeste 0 -- -- 88
2017-09-15 08:00:00 17.2 3 Sudeste 16 Sur 0 -- -- 87
2017-09-15 07:00:00 15.7 0 Calma 3 Este 0 -- -- 73
2017-09-15 06:00:00 16.2 0 Calma 3 Oeste 0 -- -- 69
2017-09-15 05:00:00 17.1 0 Calma 4 Norte 0 -- -- 64
2017-09-15 04:00:00 18.2 0 Calma 6 Este 0 -- -- 61
2017-09-15 03:00:00 19.3 0 Calma 8 Este 0 -- -- 57
2017-09-15 02:00:00 19.9 2 Nordeste 6 Nordeste 0 -- -- 54
2017-09-15 01:00:00 20.5 2 Nordeste 12 Este 0 -- -- 53
2017-09-15 00:00:00 22.5 3 Nordeste 12 Este 0 -- -- 32
2017-09-14 23:00:00 24.2 3 Oeste 10 Oeste 0 -- -- 29
2017-09-14 22:00:00 25.1 3 Sudoeste 9 Oeste 0 -- -- 28
2017-09-14 21:00:00 26.4 0 Calma 11 Sudoeste 0 -- -- 27
2017-09-14 20:00:00 28.7 4 Oeste 23 Noroeste 0 -- -- 24
2017-09-14 19:00:00 30.2 7 Noroeste 27 Oeste 0 -- -- 24
2017-09-14 18:00:00 31.1 9 Oeste 28 Oeste 0 -- -- 23
2017-09-14 17:00:00 31.2 7 Oeste 27 Noroeste 0 -- -- 23
2017-09-14 16:00:00 31.8 12 Oeste 31 Oeste 0 -- -- 23
2017-09-14 15:00:00 31.4 8 Oeste 34 Oeste 0 -- -- 25
2017-09-14 14:00:00 30.3 10 Oeste 27 Oeste 0 -- -- 27
2017-09-14 13:00:00 29.3 8 Oeste 25 Oeste 0 -- -- 32
2017-09-14 12:00:00 27.4 8 Oeste 25 Noroeste 0 -- -- 37
2017-09-14 11:00:00 24.4 11 Oeste 27 Oeste 0 -- -- 46
2017-09-14 10:00:00 19 0 Calma 8 Oeste 0 -- -- 65
2017-09-14 09:00:00 15.6 0 Calma 3 Este 0 -- -- 74
2017-09-14 08:00:00 15 0 Calma 3 Este 0 -- -- 75
2017-09-14 07:00:00 15.7 0 Calma 0 Calma 0 -- -- 71
2017-09-14 06:00:00 17.1 0 Calma 7 Sudoeste 0 -- -- 64
2017-09-14 05:00:00 18.5 3 Sudoeste 8 Sur 0 -- -- 62
2017-09-14 04:00:00 18.7 4 Sur 14 Sudoeste 0 -- -- 65
2017-09-14 03:00:00 19.2 5 Sur 19 Sudoeste 0 -- -- 67
2017-09-14 02:00:00 19.4 6 Sur 24 Sudeste 0 -- -- 65
2017-09-14 01:00:00 20.1 5 Sur 27 Sudeste 0 -- -- 63
2017-09-14 00:00:00 20.9 8 Sur 28 Sudoeste 0 -- -- 60
2017-09-13 23:00:00 21.7 6 Sur 25 Sudeste 0 -- -- 57
2017-09-13 22:00:00 23 8 Sudeste 24 Sur 0 -- -- 48
2017-09-13 21:00:00 24.5 7 Sudeste 24 Sudeste 0 -- -- 41
2017-09-13 20:00:00 26.5 5 Sur 22 Este 0 -- -- 35
2017-09-13 19:00:00 28.4 9 Sudeste 24 Sudeste 0 -- -- 32
2017-09-13 18:00:00 30 9 Sudeste 22 Sudeste 0 -- -- 30
2017-09-13 17:00:00 31.2 6 Sudeste 24 Sudoeste 0 -- -- 29
2017-09-13 16:00:00 30.8 8 Sudeste 23 Sudoeste 0 -- -- 30
2017-09-13 15:00:00 30 5 Sur 23 Este 0 -- -- 32
2017-09-13 14:00:00 28.2 8 Sur 26 Sur 0 -- -- 37
2017-09-13 13:00:00 26.8 8 Sudeste 26 Sudeste 0 -- -- 42
2017-09-13 12:00:00 24.4 7 Sudeste 23 Sudeste 0 -- -- 48
2017-09-13 11:00:00 20.9 8 Sudeste 24 Sudoeste 0 -- -- 60
2017-09-13 10:00:00 17.8 7 Sudeste 17 Sudeste 0 -- -- 79
2017-09-13 09:00:00 15.7 5 Sudeste 14 Sur 0 -- -- 94
2017-09-13 08:00:00 13.7 3 Este 10 Sudeste 0 -- -- 97
2017-09-13 07:00:00 13.2 2 Este 7 Este 0 -- -- 95
2017-09-13 06:00:00 13.4 3 Este 6 Este 0 -- -- 94
2017-09-13 05:00:00 13.8 2 Este 8 Este 0 -- -- 91
2017-09-13 04:00:00 14.5 2 Este 7 Este 0 -- -- 87
2017-09-13 03:00:00 15.5 3 Este 7 Este 0 -- -- 80
2017-09-13 02:00:00 16.6 3 Este 9 Este 0 -- -- 69
2017-09-13 01:00:00 17.6 4 Este 8 Este 0 -- -- 56
2017-09-13 00:00:00 19.4 3 Nordeste 8 Nordeste 0 -- -- 44
2017-09-12 23:00:00 20.9 0 Calma 5 Norte 0 -- -- 40
2017-09-12 22:00:00 22.4 0 Calma 6 Oeste 0 -- -- 37
2017-09-12 21:00:00 24.5 2 Oeste 16 Oeste 0 -- -- 34
2017-09-12 20:00:00 26.4 6 Oeste 23 Oeste 0 -- -- 31
2017-09-12 19:00:00 27.5 8 Oeste 29 Oeste 0 -- -- 30
2017-09-12 18:00:00 28.6 10 Oeste 28 Oeste 0 -- -- 30
2017-09-12 17:00:00 29.3 7 Noroeste 29 Oeste 0 -- -- 30
2017-09-12 16:00:00 29.2 8 Noroeste 28 Oeste 0 -- -- 32
2017-09-12 15:00:00 28 8 Oeste 27 Oeste 0 -- -- 34
2017-09-12 14:00:00 27.5 9 Oeste 27 Oeste 0 -- -- 35
2017-09-12 13:00:00 26.3 6 Noroeste 25 Oeste 0 -- -- 38
2017-09-12 12:00:00 24.4 5 Noroeste 18 Oeste 0 -- -- 43
2017-09-12 11:00:00 21.9 6 Noroeste 18 Norte 0 -- -- 48
2017-09-12 10:00:00 18.1 5 Oeste 14 Oeste 0 -- -- 58
2017-09-12 09:00:00 15.8 7 Oeste 15 Oeste 0 -- -- 60
2017-09-12 08:00:00 16.3 6 Oeste 13 Oeste 0 -- -- 57
2017-09-12 07:00:00 16.9 5 Oeste 14 Oeste 0 -- -- 53
2017-09-12 06:00:00 18.1 5 Oeste 10 Oeste 0 -- -- 50
2017-09-12 05:00:00 18.7 3 Sudoeste 9 Sudoeste 0 -- -- 47
2017-09-12 04:00:00 19.2 5 Sudoeste 10 Sudoeste 0 -- -- 43
2017-09-12 03:00:00 19.9 4 Sudoeste 12 Sudoeste 0 -- -- 41
2017-09-12 02:00:00 20.8 6 Oeste 13 Sudoeste 0 -- -- 37
2017-09-12 01:00:00 21.5 6 Oeste 14 Sudoeste 0 -- -- 35
2017-09-12 00:00:00 22.2 6 Oeste 13 Oeste 0 -- -- 34
2017-09-11 23:00:00 23.1 5 Oeste 13 Oeste 0 -- -- 34
2017-09-11 22:00:00 25 5 Oeste 14 Norte 0 -- -- 32
2017-09-11 21:00:00 26.7 4 Oeste 18 Oeste 0 -- -- 30
2017-09-11 20:00:00 28.6 7 Oeste 29 Oeste 0 -- -- 27
2017-09-11 19:00:00 29.7 9 Oeste 28 Oeste 0 -- -- 26
2017-09-11 18:00:00 30.3 12 Oeste 36 Oeste 0 -- -- 26
2017-09-11 17:00:00 31.1 7 Noroeste 31 Norte 0 -- -- 26
2017-09-11 16:00:00 30.2 10 Noroeste 35 Sudoeste 0 -- -- 27
2017-09-11 15:00:00 29.7 7 Noroeste 26 Oeste 0 -- -- 30
2017-09-11 14:00:00 28.7 7 Noroeste 26 Oeste 0 -- -- 32
2017-09-11 13:00:00 27.5 6 Oeste 21 Noroeste 0 -- -- 34
2017-09-11 12:00:00 23.9 4 Oeste 16 Oeste 0 -- -- 35
2017-09-11 11:00:00 19.6 3 Oeste 12 Oeste 0 -- -- 41
2017-09-11 10:00:00 16.2 0 Calma 5 Norte 0 -- -- 47
2017-09-11 09:00:00 14.4 0 Calma 6 Sur 0 -- -- 49
2017-09-11 08:00:00 13.5 0 Calma 4 Sudoeste 0 -- -- 50
2017-09-11 07:00:00 14.6 2 Oeste 11 Sudoeste 0 -- -- 44
2017-09-11 06:00:00 15.1 3 Sudoeste 8 Sur 0 -- -- 44
2017-09-11 05:00:00 16.1 5 Sudoeste 13 Oeste 0 -- -- 42
2017-09-11 04:00:00 16.3 6 Oeste 14 Oeste 0 -- -- 40
2017-09-11 03:00:00 16.7 6 Oeste 13 Oeste 0 -- -- 40
2017-09-11 02:00:00 16.9 6 Sudoeste 16 Oeste 0 -- -- 38
2017-09-11 01:00:00 17.7 5 Sudoeste 16 Oeste 0 -- -- 37
2017-09-11 00:00:00 18.4 8 Oeste 21 Oeste 0 -- -- 36
2017-09-10 23:00:00 18.8 6 Oeste 13 Oeste 0 -- -- 36
2017-09-10 22:00:00 19.1 5 Sudoeste 25 Noroeste 0 -- -- 36
2017-09-10 21:00:00 20.4 6 Oeste 22 Oeste 0 -- -- 33
2017-09-10 20:00:00 22 8 Oeste 31 Oeste 0 -- -- 30
2017-09-10 19:00:00 22.7 9 Oeste 38 Noroeste 0 -- -- 30
2017-09-10 18:00:00 23.8 10 Noroeste 39 Oeste 0 -- -- 29
2017-09-10 17:00:00 23.9 9 Noroeste 33 Noroeste 0 -- -- 29
2017-09-10 16:00:00 23.1 10 Noroeste 35 Oeste 0 -- -- 30
2017-09-10 15:00:00 22.8 9 Noroeste 38 Oeste 0 -- -- 33
2017-09-10 14:00:00 21.4 7 Noroeste 28 Noroeste 0 -- -- 36
2017-09-10 13:00:00 20 7 Noroeste 32 Oeste 0 -- -- 40
2017-09-10 12:00:00 17.8 6 Noroeste 31 Oeste 0 -- -- 46
2017-09-10 11:00:00 15.9 6 Noroeste 27 Oeste 0 -- -- 53
2017-09-10 10:00:00 14.2 7 Noroeste 26 Norte 0 -- -- 58
2017-09-10 09:00:00 11.9 6 Oeste 17 Oeste 0 -- -- 67
2017-09-10 08:00:00 11.5 5 Oeste 19 Oeste 0 -- -- 67
2017-09-10 07:00:00 12.1 3 Oeste 13 Noroeste 0 -- -- 64
2017-09-10 06:00:00 12.8 6 Oeste 16 Oeste 0 -- -- 62
2017-09-10 05:00:00 14.3 4 Oeste 12 Oeste 0 -- -- 64
2017-09-10 04:00:00 15.1 2 Noroeste 9 Nordeste 0 -- -- 61
2017-09-10 03:00:00 15.9 3 Nordeste 15 Norte 0 -- -- 58
2017-09-10 02:00:00 16.9 3 Norte 15 Nordeste 0 -- -- 54
2017-09-10 01:00:00 18.8 6 Noroeste 23 Noroeste 0 -- -- 37
2017-09-10 00:00:00 19.5 5 Oeste 18 Oeste 0 -- -- 38
2017-09-09 23:00:00 20.4 5 Oeste 17 Oeste 0 -- -- 38
2017-09-09 22:00:00 21.2 4 Noroeste 17 Noroeste 0 -- -- 39
2017-09-09 21:00:00 21.4 6 Oeste 28 Oeste 0 -- -- 41
2017-09-09 20:00:00 22.4 8 Noroeste 29 Oeste 0 -- -- 37
2017-09-09 19:00:00 22.9 8 Noroeste 40 Oeste 0 -- -- 38
2017-09-09 18:00:00 23.8 9 Oeste 42 Noroeste 0 -- -- 35
2017-09-09 17:00:00 24.5 11 Oeste 41 Oeste 0 -- -- 34
2017-09-09 16:00:00 25.2 14 Oeste 40 Oeste 0 -- -- 29
2017-09-09 15:00:00 25.5 10 Oeste 33 Oeste 0 -- -- 30
2017-09-09 14:00:00 24.8 11 Oeste 32 Oeste 0 -- -- 29
2017-09-09 13:00:00 23 13 Oeste 39 Oeste 0 -- -- 29
2017-09-09 12:00:00 22.7 15 Oeste 39 Oeste 0 -- -- 31
2017-09-09 11:00:00 22.5 15 Oeste 33 Oeste 0 -- -- 34
2017-09-09 10:00:00 20.7 4 Noroeste 32 Oeste 0 -- -- 40
2017-09-09 09:00:00 19.7 7 Oeste 26 Sudoeste 0 -- -- 43
2017-09-09 08:00:00 19.2 5 Sudoeste 13 Oeste 0 -- -- 44
2017-09-09 07:00:00 19.4 6 Oeste 17 Sudoeste 0 -- -- 43
2017-09-09 06:00:00 19.5 8 Oeste 24 Oeste 0 -- -- 41
2017-09-09 05:00:00 19.2 7 Oeste 18 Oeste 0 -- -- 38
2017-09-09 04:00:00 19.4 6 Oeste 16 Oeste 0 -- -- 31
2017-09-09 03:00:00 20 5 Sudoeste 15 Sudoeste 0 -- -- 30
2017-09-09 02:00:00 21.3 7 Sudoeste 17 Sudoeste 0 -- -- 31
2017-09-09 01:00:00 21.9 5 Sudoeste 15 Sudoeste 0 -- -- 44
2017-09-09 00:00:00 22.3 5 Sudoeste 18 Sur 0 -- -- 71
2017-09-08 23:00:00 23.1 6 Sur 25 Sudoeste 0 -- -- 72
2017-09-08 22:00:00 24.2 4 Sur 25 Sur 0 -- -- 66
2017-09-08 21:00:00 25.6 4 Sur 24 Sur 0 -- -- 57
2017-09-08 20:00:00 27.4 5 Sur 25 Sur 0 -- -- 44
2017-09-08 19:00:00 29.6 5 Sur 22 Sudoeste 0 -- -- 36
2017-09-08 18:00:00 31.7 5 Sur 18 Oeste 0 -- -- 27
2017-09-08 17:00:00 32.2 3 Sudoeste 19 Oeste 0 -- -- 25
2017-09-08 16:00:00 31.5 5 Oeste 18 Oeste 0 -- -- 26
2017-09-08 15:00:00 30.5 0 Calma 11 Oeste 0 -- -- 28
2017-09-08 14:00:00 28.7 3 Norte 9 Este 0 -- -- 34
2017-09-08 13:00:00 26.6 3 Nordeste 17 Sudeste 0 -- -- 47
2017-09-08 12:00:00 24.8 5 Sudeste 12 Nordeste 0 -- -- 60
2017-09-08 11:00:00 21.2 4 Sudeste 13 Sudeste 0 -- -- 83
2017-09-08 10:00:00 17.6 3 Este 6 Este 0 -- -- 98
2017-09-08 09:00:00 16.3 2 Este 5 Este 0 -- -- 97
2017-09-08 08:00:00 16.5 0 Calma 5 Este 0 -- -- 96
2017-09-08 07:00:00 17.7 3 Este 10 Sudeste 0 -- -- 95
2017-09-08 06:00:00 18.8 4 Sudeste 12 Sudeste 0 -- -- 96
2017-09-08 05:00:00 18.9 3 Este 16 Sudeste 0 -- -- 96
2017-09-08 04:00:00 18.6 2 Este 8 Este 0 -- -- 95
2017-09-08 03:00:00 19.3 2 Este 10 Sudeste 0 -- -- 92
2017-09-08 02:00:00 20.1 3 Este 21 Sudeste 0 -- -- 89
2017-09-08 01:00:00 21.1 6 Sur -- -- -- -- -- 85
2017-09-08 00:00:00 21.6 7 Sudeste 19 Sudeste 0 -- -- 81
2017-09-07 23:00:00 22.4 5 Sur 25 Sur 0 -- -- 76
2017-09-07 22:00:00 23.6 6 Sur 24 Sur 0 -- -- 64
2017-09-07 21:00:00 25.4 5 Sur 18 Sur 0 -- -- 50
2017-09-07 20:00:00 28.5 0 Calma 17 Noroeste 0 -- -- 36
2017-09-07 19:00:00 29.2 4 Nordeste 13 Oeste 0 -- -- 34
2017-09-07 18:00:00 30.5 0 Calma 16 Oeste 0 -- -- 33
2017-09-07 17:00:00 30.4 0 Calma 17 Este 0 -- -- 33
2017-09-07 16:00:00 30.7 3 Este 12 Este 0 -- -- 35
2017-09-07 15:00:00 29.7 4 Este 16 Sudeste 0 -- -- 37
2017-09-07 14:00:00 28.3 6 Este 18 Sudeste 0.1 -- -- 41
2017-09-07 13:00:00 26.6 6 Este 22 Sudeste 0 -- -- 49
2017-09-07 12:00:00 24.5 5 Este 17 Sudeste 0 -- -- 59
2017-09-07 11:00:00 21.1 6 Sudeste 20 Este 0 -- -- 77
2017-09-07 10:00:00 19.4 5 Este 16 Este 0 -- -- 95
2017-09-07 09:00:00 18.2 0 Calma 7 Este 0 -- -- 99
2017-09-07 08:00:00 18 0 Calma 8 Este 0 -- -- 99
2017-09-07 07:00:00 18.2 4 Este 9 Este 0 -- -- 99
2017-09-07 06:00:00 18.8 0 Calma 17 Sudeste 0 -- -- 99
2017-09-07 05:00:00 19.3 3 Sudeste 14 Este 0.5 -- -- 99
2017-09-07 04:00:00 20.4 5 Este 15 Sudeste 1.2 -- -- 95
2017-09-07 03:00:00 20.9 5 Sudeste 17 Sudeste 0 -- -- 90
2017-09-07 02:00:00 21 4 Sudeste 10 Este 0 -- -- 91
2017-09-07 01:00:00 21.5 4 Este 16 Sudeste 0 -- -- 87
2017-09-07 00:00:00 22.6 7 Sudeste 22 Sudeste 0 -- -- 74
2017-09-06 23:00:00 23.1 10 Sudeste 21 Sudeste 0 -- -- 82
2017-09-06 22:00:00 22.7 5 Este 28 Este 0 -- -- 82
2017-09-06 21:00:00 22.9 10 Este 35 Este 0 -- -- 80
2017-09-06 20:00:00 28 4 Este 28 Este 0 -- -- 40
2017-09-06 19:00:00 27.8 12 Este 31 Este 0 -- -- 53
2017-09-06 18:00:00 31.8 9 Sudeste 22 Este 0 -- -- 29
2017-09-06 17:00:00 32.1 3 Noroeste 19 Oeste 0 -- -- 28
2017-09-06 16:00:00 32.9 0 Calma 15 Sur 0 -- -- 29
2017-09-06 15:00:00 32.4 3 Sur 18 Sudoeste 0 -- -- 32
2017-09-06 14:00:00 30.9 2 Este 11 Sudeste 0 -- -- 35
2017-09-06 13:00:00 29 0 Calma 10 Este 0 -- -- 39
2017-09-06 12:00:00 26.3 2 Este 10 Este 0 -- -- 48
2017-09-06 11:00:00 22.3 2 Este 8 Oeste 0 -- -- 63
2017-09-06 10:00:00 20.3 4 Sur 10 Sur 0 -- -- 71
2017-09-06 09:00:00 18.3 2 Sudeste 9 Sur 0 -- -- 85
2017-09-06 08:00:00 17.5 3 Este 6 Este 0 -- -- 99
2017-09-06 07:00:00 17.6 0 Calma 6 Nordeste 0 -- -- 96
2017-09-06 06:00:00 18.2 0 Calma 7 Este 0 -- -- 95
2017-09-06 05:00:00 19 3 Este 9 Este 0 -- -- 91
2017-09-06 04:00:00 19.9 4 Este 8 Nordeste 0 -- -- 74
2017-09-06 03:00:00 21.2 5 Sudeste 19 Sur 0 -- -- 70
2017-09-06 02:00:00 21.7 5 Sudeste 21 Sudoeste 0 -- -- 67
2017-09-06 01:00:00 22.2 5 Sudeste 24 Sudeste 0 -- -- 64
2017-09-06 00:00:00 23 8 Sudeste 21 Sur 0 -- -- 58
2017-09-05 23:00:00 24 5 Sur 21 Sur 0 -- -- 52
2017-09-05 22:00:00 25.2 8 Sur 23 Sudoeste 0 -- -- 50
2017-09-05 21:00:00 26.8 10 Sur 23 Sur 0 -- -- 45
2017-09-05 20:00:00 29.1 6 Sur 17 Sudoeste 0 -- -- 37
2017-09-05 19:00:00 30.5 3 Sudeste 18 Sudeste 0 -- -- 33
2017-09-05 18:00:00 32 4 Este 20 Sudeste 0 -- -- 32
2017-09-05 17:00:00 32 6 Este 18 Este 0 -- -- 33
2017-09-05 16:00:00 32.3 6 Sudeste 19 Sudeste 0 -- -- 33
2017-09-05 15:00:00 31.4 5 Sudeste 19 Sudoeste 0 -- -- 35
2017-09-05 14:00:00 29.4 5 Sur 25 Sudeste 0 -- -- 43
2017-09-05 13:00:00 27.8 6 Sur 21 Sudeste 0 -- -- 48
2017-09-05 12:00:00 25.1 8 Sudeste 23 Sudeste 0 -- -- 59
2017-09-05 11:00:00 22 6 Sudeste 23 Sudeste 0 -- -- 74
2017-09-05 10:00:00 20.1 7 Sudeste 18 Sudeste 0 -- -- 86
2017-09-05 09:00:00 18.7 6 Este 19 Este 0 -- -- 94
2017-09-05 08:00:00 17.4 3 Este 10 Este 0 -- -- 97
2017-09-05 07:00:00 17.6 4 Este 11 Este 0 -- -- 98
2017-09-05 06:00:00 17.7 3 Este 6 Este 0 -- -- 94
2017-09-05 05:00:00 18.5 0 Calma 5 Este 0 -- -- 93
2017-09-05 04:00:00 19.2 4 Este 9 Este 0 -- -- 91
2017-09-05 03:00:00 19.3 3 Este 7 Este 0 -- -- 90
2017-09-05 02:00:00 19.7 3 Este 8 Este 0 -- -- 87
2017-09-05 01:00:00 20.5 3 Este 11 Nordeste 0 -- -- 82
2017-09-05 00:00:00 21.5 3 Este 14 Este 0 -- -- 76
2017-09-04 23:00:00 22.5 5 Este 19 Sur 0 -- -- 69
2017-09-04 22:00:00 23.7 8 Sudeste 27 Sudeste 0 -- -- 61
2017-09-04 21:00:00 26.8 3 Sudoeste 13 Oeste 0 -- -- 30
2017-09-04 20:00:00 29 0 Calma 12 Noroeste 0 -- -- 27
2017-09-04 19:00:00 30 4 Noroeste 18 Sudoeste 0 -- -- 24
2017-09-04 18:00:00 30.7 2 Oeste 19 Oeste 0 -- -- 23
2017-09-04 17:00:00 30.9 9 Oeste 23 Sudoeste 0 -- -- 23
2017-09-04 16:00:00 30.6 9 Oeste 23 Oeste 0 -- -- 23
2017-09-04 15:00:00 30.2 5 Oeste 22 Oeste 0 -- -- 24
2017-09-04 14:00:00 29.4 8 Oeste 20 Sudoeste 0 -- -- 25
2017-09-04 13:00:00 28 6 Oeste 19 Oeste 0 -- -- 27
2017-09-04 12:00:00 26.6 9 Oeste 23 Oeste 0 -- -- 32
2017-09-04 11:00:00 23.8 8 Oeste 22 Oeste 0 -- -- 43
2017-09-04 10:00:00 19.8 4 Oeste 18 Oeste 0 -- -- 62
2017-09-04 09:00:00 18.6 5 Sudoeste 12 Sudoeste 0 -- -- 67
2017-09-04 08:00:00 17.3 2 Oeste 7 Oeste 0 -- -- 62
2017-09-04 07:00:00 18.3 4 Oeste 12 Sudoeste 0 -- -- 61
2017-09-04 06:00:00 19.2 6 Sudoeste 17 Sudoeste 0 -- -- 61
2017-09-04 05:00:00 20.5 6 Sudoeste 15 Sudoeste 0 -- -- 61
2017-09-04 04:00:00 20.8 6 Sudoeste 15 Sudoeste 0 -- -- 60
2017-09-04 03:00:00 21.4 5 Sudoeste 16 Oeste 0 -- -- 57
2017-09-04 02:00:00 22.6 6 Sudoeste 16 Sudoeste 0 -- -- 54
2017-09-04 01:00:00 22.8 6 Oeste 14 Sudoeste 0 -- -- 53
2017-09-04 00:00:00 23.6 4 Sudoeste 12 Sudoeste 0 -- -- 60
2017-09-03 23:00:00 24.1 4 Sur 13 Sur 0 -- -- 54
2017-09-03 22:00:00 24.5 2 Sudoeste 5 Sur 0 -- -- 37
2017-09-03 21:00:00 26.9 0 Calma 10 Oeste 0 -- -- 31
2017-09-03 20:00:00 29.5 4 Noroeste 21 Oeste 0 -- -- 25
2017-09-03 19:00:00 30.2 10 Oeste 28 Oeste 0 -- -- 25
2017-09-03 18:00:00 31.4 7 Oeste 27 Oeste 0 -- -- 24
2017-09-03 17:00:00 31.1 10 Oeste 27 Oeste 0 -- -- 27
2017-09-03 16:00:00 30.9 8 Oeste 35 Oeste 0 -- -- 30
2017-09-03 15:00:00 28.9 8 Oeste 25 Oeste 0 -- -- 34
2017-09-03 14:00:00 29.1 10 Oeste 25 Oeste 0 -- -- 36
2017-09-03 13:00:00 26.3 3 Sudoeste 17 Sudoeste 0 -- -- 48
2017-09-03 12:00:00 23.9 5 Sudoeste 12 Oeste 0 -- -- 58
2017-09-03 11:00:00 20 0 Calma 4 Nordeste 0 -- -- 85
2017-09-03 10:00:00 17.2 0 Calma 5 Este 0 -- -- 96
2017-09-03 09:00:00 14.9 0 Calma 6 Este 0 -- -- 99
2017-09-03 08:00:00 14.1 3 Este 9 Este 0 -- -- 99
2017-09-03 07:00:00 14.3 0 Calma 6 Este 0 -- -- 99
2017-09-03 06:00:00 14.9 2 Este 8 Este 0 -- -- 96
2017-09-03 05:00:00 16.1 4 Este 7 Este 0 -- -- 92
2017-09-03 04:00:00 17.9 2 Nordeste 11 Sur 0 -- -- 94
2017-09-03 03:00:00 18.6 3 Sur 13 Sur 0 -- -- 92
2017-09-03 02:00:00 18.9 6 Sur 17 Sudeste 0 -- -- 90
2017-09-03 01:00:00 19.6 3 Sur 15 Sur 0 -- -- 87
2017-09-03 00:00:00 20.3 5 Sur 18 Sudeste 0 -- -- 81
2017-09-02 23:00:00 21.7 8 Sur 21 Sur 0 -- -- 72
2017-09-02 22:00:00 22.5 0 Calma 3 Este 0 -- -- 33
2017-09-02 21:00:00 24.8 0 Calma 10 Sur 0 -- -- 28
2017-09-02 20:00:00 27.7 2 Noroeste 15 Oeste 0 -- -- 24
2017-09-02 19:00:00 28.7 3 Noroeste 18 Noroeste 0 -- -- 25
2017-09-02 18:00:00 29.3 7 Oeste 17 Oeste 0 -- -- 26
2017-09-02 17:00:00 29.2 2 Oeste 18 Oeste 0 -- -- 32
2017-09-02 16:00:00 27.5 7 Oeste 20 Oeste 0 -- -- 38
2017-09-02 15:00:00 26.6 2 Norte 14 Oeste 0 -- -- 47
2017-09-02 14:00:00 25 3 Oeste 14 Sur 0 -- -- 56
2017-09-02 13:00:00 23.3 5 Sudoeste 12 Sudoeste 0.1 -- -- 64
2017-09-02 12:00:00 21.3 3 Este 11 Este 0 -- -- 70
2017-09-02 11:00:00 18.9 3 Este 21 Nordeste 0 -- -- 74
2017-09-02 10:00:00 17.9 5 Este 15 Nordeste 0 -- -- 76
2017-09-02 09:00:00 16.9 6 Este 14 Este 0 -- -- 75
2017-09-02 08:00:00 16.7 5 Nordeste 14 Este 0 -- -- 77
2017-09-02 07:00:00 17.1 4 Nordeste 14 Este 0 -- -- 78
2017-09-02 06:00:00 17.6 5 Nordeste 20 Este 0 -- -- 86
2017-09-02 05:00:00 18.6 3 Nordeste 17 Este 0 -- -- 96
2017-09-02 04:00:00 19 5 Nordeste 15 Este 0 -- -- 97
2017-09-02 03:00:00 19.2 4 Este 12 Nordeste 0 -- -- 97
2017-09-02 02:00:00 19.4 5 Este 14 Este 0 -- -- 96
2017-09-02 01:00:00 19.5 4 Este 13 Este 0 -- -- 96
2017-09-02 00:00:00 19.6 4 Este 18 Este 0.7 -- -- 95
2017-09-01 23:00:00 21.5 6 Este 21 Nordeste 0.1 -- -- 81
2017-09-01 22:00:00 22 4 Este 20 Sudeste 0 -- -- 79
2017-09-01 21:00:00 22.3 7 Sudeste 24 Sudeste 0 -- -- 78
2017-09-01 20:00:00 23.8 12 Sudeste 22 Sudeste 0 -- -- 70
2017-09-01 19:00:00 25.6 5 Este 22 Nordeste 0 -- -- 61
2017-09-01 18:00:00 26.5 7 Este 24 Oeste 0 -- -- 55
2017-09-01 17:00:00 26.5 3 Sur 23 Este 0 -- -- 52
2017-09-01 16:00:00 27.8 9 Sudeste 20 Sudeste 0 -- -- 50
2017-09-01 15:00:00 28.6 6 Este 18 Sudeste 0 -- -- 47
2017-09-01 14:00:00 27.2 7 Sudeste 23 Este 0 -- -- 50
2017-09-01 13:00:00 26.2 5 Sudeste 20 Sudeste 0 -- -- 56
2017-09-01 12:00:00 24.4 3 Este 15 Sudeste 0 -- -- 63
2017-09-01 11:00:00 21.6 5 Este 17 Nordeste 0 -- -- 77
2017-09-01 10:00:00 20 6 Este 15 Sudeste 0 -- -- 87
2017-09-01 09:00:00 18.9 3 Sudeste 13 Sur 0 -- -- 94
2017-09-01 08:00:00 17.9 0 Calma 7 Sudeste 0 -- -- 98
2017-09-01 07:00:00 17.9 2 Este 9 Este 0 -- -- 96
2017-09-01 06:00:00 18.8 3 Este 12 Este 0 -- -- 91
2017-09-01 05:00:00 19.9 4 Este 14 Este 0 -- -- 89
2017-09-01 04:00:00 20.4 3 Este 14 Nordeste 0 -- -- 88
2017-09-01 03:00:00 20.2 8 Este 15 Este 0 -- -- 89
2017-09-01 02:00:00 20.4 3 Sudeste 17 Sudeste 0 -- -- 89
2017-09-01 01:00:00 20.7 3 Este 15 Sudeste 0 -- -- 88
2017-09-01 00:00:00 21.6 4 Sudeste 20 Este 0 -- -- 74
2017-08-31 23:00:00 22.7 6 Sudeste 18 Sudeste 0 -- -- 68
2017-08-31 22:00:00 23.7 7 Sudeste 15 Sudeste 0 -- -- 61
2017-08-31 21:00:00 25.1 3 Sur 16 Sur 0 -- -- 51
2017-08-31 20:00:00 26.5 3 Sudeste 16 Este 0 -- -- 46
2017-08-31 19:00:00 27.3 3 Sudeste 13 Este 0 -- -- 43
2017-08-31 18:00:00 27.6 3 Nordeste 12 Este 0 -- -- 40
2017-08-31 17:00:00 27.9 3 Sur 11 Oeste 0 -- -- 39
2017-08-31 16:00:00 27.9 3 Oeste 14 Oeste 0 -- -- 38
2017-08-31 15:00:00 29 3 Este 14 Este 0 -- -- 39
2017-08-31 14:00:00 27.8 3 Este 14 Nordeste 0 -- -- 42
2017-08-31 13:00:00 25.8 0 Calma 7 Este 0 -- -- 47
2017-08-31 12:00:00 21.9 3 Oeste 9 Oeste 0.3 -- -- 61
2017-08-31 11:00:00 20.7 2 Oeste 8 Oeste 0 -- -- 62
2017-08-31 10:00:00 19.7 0 Calma 5 Sur 0 -- -- 67
2017-08-31 09:00:00 18.1 0 Calma 3 Este 0 -- -- 76
2017-08-31 08:00:00 17.9 0 Calma 3 Este 0 -- -- 74
2017-08-31 07:00:00 18.2 0 Calma 8 Oeste 0 -- -- 70
2017-08-31 06:00:00 18.9 3 Oeste 9 Sudoeste 0 -- -- 67
2017-08-31 05:00:00 19 3 Sudoeste 10 Sur 0 -- -- 67
2017-08-31 04:00:00 19.2 3 Sudoeste 10 Sur 0 -- -- 68
2017-08-31 03:00:00 19.8 3 Sudoeste 10 Sur 0 -- -- 73
2017-08-31 02:00:00 20.2 3 Sudoeste 12 Sur 0 -- -- 73
2017-08-31 01:00:00 20.3 4 Sudoeste 14 Sur 0 -- -- 73
2017-08-31 00:00:00 20.7 3 Sur 11 Sudeste 0 -- -- 69
2017-08-30 23:00:00 21.4 2 Sur 10 Sur 0 -- -- 64
2017-08-30 22:00:00 22.4 4 Sudeste 14 Sur 0 -- -- 59
2017-08-30 21:00:00 23.2 3 Sur 13 Sur 0 -- -- 54
2017-08-30 20:00:00 24.1 3 Sur 9 Sudoeste 0 -- -- 50
2017-08-30 19:00:00 24.5 4 Sur 12 Sudoeste 0 -- -- 49
2017-08-30 18:00:00 25.7 3 Este 15 Sudoeste 0 -- -- 49
2017-08-30 17:00:00 24.4 3 Oeste 14 Sudeste 0 -- -- 50
2017-08-30 16:00:00 24.4 3 Sur 13 Sudoeste 0 -- -- 50
2017-08-30 15:00:00 23 3 Sudoeste 13 Sur 0 -- -- 57
2017-08-30 14:00:00 20.7 2 Sudoeste 13 Oeste 0 -- -- 64
2017-08-30 13:00:00 19.5 3 Sudoeste 14 Sudoeste 0 -- -- 71
2017-08-30 12:00:00 19.1 4 Sudoeste 12 Sudoeste 0 -- -- 75
2017-08-30 11:00:00 18.4 4 Sudoeste 11 Sudeste 0 -- -- 87
2017-08-30 10:00:00 17.9 3 Sur 9 Sudoeste 0 -- -- 90
2017-08-30 09:00:00 16.8 3 Sudoeste 15 Sur 0 -- -- 97
2017-08-30 08:00:00 16.7 4 Sudoeste 14 Sudoeste 0 -- -- 97
2017-08-30 07:00:00 16.8 5 Sudeste 15 Sur 0 -- -- 96
2017-08-30 06:00:00 16.9 4 Sudeste 15 Sur 0 -- -- 96
2017-08-30 05:00:00 16.9 4 Sur 16 Sur 0 -- -- 95
2017-08-30 04:00:00 16.9 5 Sur 21 Sur 0 -- -- 95
2017-08-30 03:00:00 17.2 6 Sudeste 23 Sur 0 -- -- 93
2017-08-30 02:00:00 17.8 6 Sudeste 24 Sur 0 -- -- 90
2017-08-30 01:00:00 18 5 Sur 26 Sudoeste 0 -- -- 89
2017-08-30 00:00:00 18.1 9 Sudeste 30 Sudeste 0 -- -- 87
2017-08-29 23:00:00 18.3 6 Sudeste 25 Sudeste 0 -- -- 84
2017-08-29 22:00:00 18.5 7 Sudeste 19 Sur 0 -- -- 77
2017-08-29 21:00:00 18.7 8 Sudeste 30 Sudeste 0 -- -- 76
2017-08-29 20:00:00 18.7 8 Sudeste 36 Sudeste 0 -- -- 77
2017-08-29 19:00:00 18.8 8 Sur 30 Sudeste 0 -- -- 74
2017-08-29 18:00:00 18.4 7 Sur 36 Sur 0 -- -- 77
2017-08-29 17:00:00 18.9 14 Sudeste 37 Sudeste 0 -- -- 74
2017-08-29 16:00:00 19.6 14 Sudeste 41 Sudeste 0 -- -- 81
2017-08-29 15:00:00 22.1 14 Sudeste 32 Sudeste 0 -- -- 69
2017-08-29 14:00:00 24.6 9 Sudeste 26 Sudeste 0 -- -- 62
2017-08-29 13:00:00 23.7 9 Sudeste 21 Sudeste 0 -- -- 65
2017-08-29 12:00:00 22.8 9 Sudeste 19 Sudeste 0 -- -- 69
2017-08-29 11:00:00 19.4 0 Calma 6 Este 0 -- -- 85
2017-08-29 10:00:00 17.6 0 Calma 5 Este 0 -- -- 91
2017-08-29 09:00:00 16.3 2 Este 9 Este 0 -- -- 94
2017-08-29 08:00:00 16.3 0 Calma 3 Norte 0 -- -- 96
2017-08-29 07:00:00 16.3 0 Calma 5 Este 0 -- -- 96
2017-08-29 06:00:00 16.6 0 Calma 10 Sudoeste 0 -- -- 96
2017-08-29 05:00:00 16.6 0 Calma 6 Sudeste 0 -- -- 97
2017-08-29 04:00:00 16.8 0 Calma 7 Oeste 0 -- -- 97
2017-08-29 03:00:00 16.7 0 Calma 6 Noroeste 0 -- -- 97
2017-08-29 02:00:00 17.2 0 Calma 8 Oeste 0 -- -- 95
2017-08-29 01:00:00 17.5 2 Oeste 12 Oeste 0 -- -- 93
2017-08-29 00:00:00 18.7 5 Oeste 11 Oeste 0 -- -- 77
2017-08-28 23:00:00 18.8 4 Este 12 Este 0 -- -- 78
2017-08-28 22:00:00 18.9 2 Nordeste 10 Este 0 -- -- 78
2017-08-28 21:00:00 19.1 4 Nordeste 10 Este 0 -- -- 77
2017-08-28 20:00:00 20.4 3 Noroeste 41 Oeste 0 -- -- 70
2017-08-28 19:00:00 23.7 10 Oeste 36 Oeste 0 -- -- 55
2017-08-28 18:00:00 25.6 9 Sudeste 20 Sudoeste 0 -- -- 64
2017-08-28 17:00:00 25.4 9 Sur 23 Sur 0 -- -- 61
2017-08-28 16:00:00 25.8 6 Sudeste 28 Sudoeste 0 -- -- 61
2017-08-28 15:00:00 25.6 8 Sur 27 Sudeste 0 -- -- 59
2017-08-28 14:00:00 26.6 9 Sudeste 30 Sudeste 0 -- -- 57
2017-08-28 13:00:00 26.9 10 Sudeste 25 Sudoeste 0 -- -- 56
2017-08-28 12:00:00 25.9 6 Sur 24 Sur 0 -- -- 58
2017-08-28 11:00:00 24.6 6 Sudeste 13 Sudeste 0 -- -- 69
2017-08-28 10:00:00 21.7 2 Nordeste 9 Este 0 -- -- 85
2017-08-28 09:00:00 20.9 4 Norte 10 Nordeste 0 -- -- 83
2017-08-28 08:00:00 21.6 4 Este 18 Sudeste 0 -- -- 80
2017-08-28 07:00:00 21.5 9 Sudeste 25 Sudeste 0 -- -- 86
2017-08-28 06:00:00 20.9 9 Sudeste 22 Sudeste 0 -- -- 89
2017-08-28 05:00:00 20.6 3 Este 13 Sudeste 0 -- -- 80
2017-08-28 04:00:00 20.5 3 Este 11 Este 0 -- -- 79
2017-08-28 03:00:00 20.3 3 Nordeste 10 Este 0 -- -- 76
2017-08-28 02:00:00 20.7 2 Este 8 Sudeste 0 -- -- 71
2017-08-28 01:00:00 21.6 4 Sudeste 12 Sudeste 0 -- -- 68
2017-08-28 00:00:00 21.8 2 Sudeste 14 Sudeste 0 -- -- 68
2017-08-27 23:00:00 20.7 0 Calma 4 Oeste 0 -- -- 84
2017-08-27 22:00:00 21.6 0 Calma 6 Sudeste 0 -- -- 79
2017-08-27 21:00:00 22.2 3 Sudeste 11 Sur 0 -- -- 76
2017-08-27 20:00:00 22.7 6 Este 17 Oeste 0.2 -- -- 73
2017-08-27 19:00:00 23.5 6 Oeste 21 Sudoeste 0.3 -- -- 67
2017-08-27 18:00:00 24.9 5 Oeste 31 Oeste 0 -- -- 59
2017-08-27 17:00:00 24.2 10 Oeste 37 Noroeste 0 -- -- 64
2017-08-27 16:00:00 27 16 Oeste 45 Oeste 0 -- -- 47
2017-08-27 15:00:00 29.6 4 Este 14 Sur 0 -- -- 38
2017-08-27 14:00:00 29.9 5 Sudeste 22 Sudeste 0 -- -- 37
2017-08-27 13:00:00 27.3 5 Sur 22 Sur 0 -- -- 42
2017-08-27 12:00:00 25.3 5 Sudeste 20 Sudeste 0 -- -- 50
2017-08-27 11:00:00 24.4 6 Sudeste 15 Sudeste 0 -- -- 60
2017-08-27 10:00:00 22 5 Este 15 Este 0 -- -- 87
2017-08-27 09:00:00 20.4 5 Este 13 Este 0 -- -- 91
2017-08-27 08:00:00 20.3 4 Este 11 Este 0.1 -- -- 89
2017-08-27 07:00:00 20.8 5 Este 14 Este 0 -- -- 84
2017-08-27 06:00:00 21 3 Este 11 Sudeste 0 -- -- 81
2017-08-27 05:00:00 21.8 2 Sur 12 Sudeste 0 -- -- 77
2017-08-27 04:00:00 21.8 2 Sudoeste 20 Sur 0 -- -- 74
2017-08-27 03:00:00 22.6 7 Sur 17 Sur 0 -- -- 69
2017-08-27 02:00:00 23.2 3 Este 14 Este 0 -- -- 69
2017-08-27 01:00:00 24.1 6 Sudeste 18 Sudeste 0.1 -- -- 62
2017-08-27 00:00:00 23 3 Este 23 Sudoeste 1 -- -- 71
2017-08-26 23:00:00 25.9 6 Sudoeste 16 Oeste 0 -- -- 58
2017-08-26 22:00:00 26.1 2 Nordeste 23 Sudeste 0 -- -- 62
2017-08-26 21:00:00 27 13 Sudeste 29 Sudoeste 0 -- -- 57
2017-08-26 20:00:00 28.6 9 Sudoeste 26 Sudoeste 0 -- -- 49
2017-08-26 19:00:00 30.3 5 Sur 31 Sur 0 -- -- 38
2017-08-26 18:00:00 31.5 9 Sur 27 Sudoeste 0 -- -- 35
2017-08-26 17:00:00 32.3 5 Sudeste 21 Sudeste 0 -- -- 33
2017-08-26 16:00:00 32.1 4 Sudeste 13 Sur 0 -- -- 33
2017-08-26 15:00:00 32.6 3 Sur 15 Sudeste 0 -- -- 30
2017-08-26 14:00:00 34.3 3 Sudeste 14 Sudeste 0 -- -- 31
2017-08-26 13:00:00 32.3 3 Sudeste 18 Este 0 -- -- 35
2017-08-26 12:00:00 29.5 6 Sudeste 17 Este 0 -- -- 44
2017-08-26 11:00:00 25.4 5 Este 18 Sudeste 0 -- -- 66
2017-08-26 10:00:00 22.7 2 Sudoeste 12 Oeste 0 -- -- 74
2017-08-26 09:00:00 21.8 4 Sudeste 22 Sudeste 0 -- -- 77
2017-08-26 08:00:00 21.4 8 Sudeste 19 Sudeste 0 -- -- 78
2017-08-26 07:00:00 21.9 4 Sudeste 19 Sudeste 0 -- -- 76
2017-08-26 06:00:00 21.6 0 Calma 12 Sudeste 0 -- -- 73
2017-08-26 05:00:00 21.3 5 Este 10 Este 0 -- -- 79
2017-08-26 04:00:00 22.2 3 Este 7 Este 0 -- -- 71
2017-08-26 03:00:00 23.9 3 Este 17 Sudeste 0 -- -- 64
2017-08-26 02:00:00 24.7 7 Sudeste 20 Sudeste 0 -- -- 61
2017-08-26 01:00:00 25 8 Sudeste 24 Este 0 -- -- 57
2017-08-26 00:00:00 25.3 5 Sudeste 25 Sur 0 -- -- 56
2017-08-25 23:00:00 26.3 10 Sudeste 22 Sudeste 0 -- -- 51
2017-08-25 22:00:00 26 4 Este 13 Sudeste 0 -- -- 54
2017-08-25 21:00:00 26.2 7 Este 23 Este 0 -- -- 54
2017-08-25 20:00:00 27.9 2 Este 13 Nordeste 0 -- -- 51
2017-08-25 19:00:00 27.1 5 Este 17 Norte 1.7 -- -- 61
2017-08-25 18:00:00 30.6 9 Sur 35 Sudeste 1.5 -- -- 33
2017-08-25 17:00:00 32.7 8 Sur 29 Sudoeste 0.1 -- -- 30
2017-08-25 16:00:00 35.2 7 Sudeste 23 Sudeste 0 -- -- 26
2017-08-25 15:00:00 36 6 Sudeste 22 Sudeste 0 -- -- 26
2017-08-25 14:00:00 34.5 6 Sudeste 19 Sudeste 0.1 -- -- 30
2017-08-25 13:00:00 31.9 4 Este 17 Nordeste 0 -- -- 35
2017-08-25 12:00:00 29.6 4 Oeste 16 Este 0 -- -- 38
2017-08-25 11:00:00 25.6 5 Este 14 Sudeste 0 -- -- 53
2017-08-25 10:00:00 22 4 Este 9 Este 0 -- -- 68
2017-08-25 09:00:00 20.3 2 Nordeste 5 Este 0 -- -- 71
2017-08-25 08:00:00 19 0 Calma 6 Este 0 -- -- 83
2017-08-25 07:00:00 19.5 3 Este 6 Este 0 -- -- 78
2017-08-25 06:00:00 20.9 2 Este 14 Sudeste 0 -- -- 55
2017-08-25 05:00:00 22.4 8 Sudeste 16 Sudeste 0 -- -- 50
2017-08-25 04:00:00 22.9 4 Sudeste 22 Sudeste 0 -- -- 50
2017-08-25 03:00:00 23.3 5 Sur 25 Sur 0 -- -- 50
2017-08-25 02:00:00 23.9 9 Sur 24 Sur 0 -- -- 51
2017-08-25 01:00:00 24.4 5 Sur 26 Sudoeste 0 -- -- 50
2017-08-25 00:00:00 25.2 8 Sur 25 Sur 0 -- -- 48